sensor_id;sensor_type;location;lat;lon;timestamp;pressure;altitude;pressure_sealevel;temperature;humidity
61345;BME280;47216;42.656;23.232;2022-11-21T00:00:58;92645.31;;;11.03;84.71
61345;BME280;47216;42.656;23.232;2022-11-21T00:03:26;92636.97;;;11.01;85.09
61345;BME280;47216;42.656;23.232;2022-11-21T00:05:53;92647.66;;;11.05;85.02
61345;BME280;47216;42.656;23.232;2022-11-21T00:08:20;92634.91;;;10.79;85.68
61345;BME280;47216;42.656;23.232;2022-11-21T00:10:47;92615.59;;;10.80;86.08
61345;BME280;47216;42.656;23.232;2022-11-21T00:13:16;92632.09;;;10.94;85.42
61345;BME280;47216;42.656;23.232;2022-11-21T00:15:44;92626.94;;;10.89;85.39
61345;BME280;47216;42.656;23.232;2022-11-21T00:18:11;92608.16;;;10.68;85.85
61345;BME280;47216;42.656;23.232;2022-11-21T00:20:40;92606.25;;;10.74;85.93
61345;BME280;47216;42.656;23.232;2022-11-21T00:23:08;92610.03;;;10.63;86.48
61345;BME280;47216;42.656;23.232;2022-11-21T00:25:35;92614.28;;;10.59;86.44
61345;BME280;47216;42.656;23.232;2022-11-21T00:28:02;92613.38;;;10.68;86.36
61345;BME280;47216;42.656;23.232;2022-11-21T00:30:29;92597.94;;;10.72;86.47
61345;BME280;47216;42.656;23.232;2022-11-21T00:32:57;92589.06;;;10.73;86.72
61345;BME280;47216;42.656;23.232;2022-11-21T00:35:23;92588.06;;;10.69;86.44
61345;BME280;47216;42.656;23.232;2022-11-21T00:37:52;92575.78;;;10.75;87.04
61345;BME280;47216;42.656;23.232;2022-11-21T00:40:18;92568.09;;;10.83;86.33
61345;BME280;47216;42.656;23.232;2022-11-21T00:42:45;92582.63;;;10.89;85.77
61345;BME280;47216;42.656;23.232;2022-11-21T00:45:12;92581.75;;;10.75;85.85
61345;BME280;47216;42.656;23.232;2022-11-21T00:47:39;92584.88;;;10.77;85.09
61345;BME280;47216;42.656;23.232;2022-11-21T00:50:06;92561.75;;;10.89;84.90
61345;BME280;47216;42.656;23.232;2022-11-21T00:52:33;92559.50;;;10.83;84.80
61345;BME280;47216;42.656;23.232;2022-11-21T00:55:01;92565.97;;;10.85;84.67
61345;BME280;47216;42.656;23.232;2022-11-21T00:57:28;92568.66;;;10.80;84.64
61345;BME280;47216;42.656;23.232;2022-11-21T00:59:55;92564.78;;;10.78;84.48
61345;BME280;47216;42.656;23.232;2022-11-21T01:02:21;92560.16;;;10.69;84.32
61345;BME280;47216;42.656;23.232;2022-11-21T01:04:48;92543.00;;;10.68;84.71
61345;BME280;47216;42.656;23.232;2022-11-21T01:07:15;92555.75;;;10.70;84.64
61345;BME280;47216;42.656;23.232;2022-11-21T01:09:42;92521.03;;;10.75;83.96
61345;BME280;47216;42.656;23.232;2022-11-21T01:12:10;92511.28;;;10.80;83.73
61345;BME280;47216;42.656;23.232;2022-11-21T01:14:37;92519.19;;;10.75;83.13
61345;BME280;47216;42.656;23.232;2022-11-21T01:17:03;92518.88;;;10.58;83.56
61345;BME280;47216;42.656;23.232;2022-11-21T01:19:30;92514.78;;;10.51;84.49
61345;BME280;47216;42.656;23.232;2022-11-21T01:21:57;92519.56;;;10.44;84.11
61345;BME280;47216;42.656;23.232;2022-11-21T01:24:25;92526.16;;;10.37;84.65
61345;BME280;47216;42.656;23.232;2022-11-21T01:33:36;92512.97;;;10.71;84.16
61345;BME280;47216;42.656;23.232;2022-11-21T01:36:08;92508.53;;;10.90;82.86
61345;BME280;47216;42.656;23.232;2022-11-21T01:38:35;92465.47;;;11.12;82.53
61345;BME280;47216;42.656;23.232;2022-11-21T01:41:02;92509.66;;;11.03;83.20
61345;BME280;47216;42.656;23.232;2022-11-21T01:43:29;92508.81;;;11.08;82.94
61345;BME280;47216;42.656;23.232;2022-11-21T01:45:57;92499.31;;;10.98;83.30
61345;BME280;47216;42.656;23.232;2022-11-21T01:48:29;92504.28;;;11.13;81.40
61345;BME280;47216;42.656;23.232;2022-11-21T01:51:02;92501.28;;;11.06;82.49
61345;BME280;47216;42.656;23.232;2022-11-21T01:53:31;92501.28;;;11.06;82.63
61345;BME280;47216;42.656;23.232;2022-11-21T01:55:58;92503.13;;;11.06;83.01
61345;BME280;47216;42.656;23.232;2022-11-21T01:58:27;92501.91;;;11.17;82.00
61345;BME280;47216;42.656;23.232;2022-11-21T02:00:54;92508.56;;;11.09;83.07
61345;BME280;47216;42.656;23.232;2022-11-21T02:03:24;92509.44;;;11.00;83.62
61345;BME280;47216;42.656;23.232;2022-11-21T02:05:53;92497.88;;;11.25;80.20
61345;BME280;47216;42.656;23.232;2022-11-21T02:08:22;92489.69;;;11.64;78.65
61345;BME280;47216;42.656;23.232;2022-11-21T02:11:05;92501.78;;;11.60;80.15
61345;BME280;47216;42.656;23.232;2022-11-21T02:13:35;92496.75;;;11.77;80.85
61345;BME280;47216;42.656;23.232;2022-11-21T02:16:01;92511.44;;;11.92;78.05
61345;BME280;47216;42.656;23.232;2022-11-21T02:18:28;92471.09;;;12.12;76.58
61345;BME280;47216;42.656;23.232;2022-11-21T02:20:58;92480.50;;;12.13;75.81
61345;BME280;47216;42.656;23.232;2022-11-21T02:23:34;92473.81;;;12.35;74.24
61345;BME280;47216;42.656;23.232;2022-11-21T02:26:06;92481.53;;;12.40;74.66
61345;BME280;47216;42.656;23.232;2022-11-21T02:28:33;92477.28;;;12.30;75.48
61345;BME280;47216;42.656;23.232;2022-11-21T02:31:00;92472.81;;;12.45;76.27
61345;BME280;47216;42.656;23.232;2022-11-21T02:33:27;92475.91;;;12.47;74.13
61345;BME280;47216;42.656;23.232;2022-11-21T02:35:58;92476.03;;;12.42;75.41
61345;BME280;47216;42.656;23.232;2022-11-21T02:38:28;92489.69;;;12.38;73.39
61345;BME280;47216;42.656;23.232;2022-11-21T02:41:00;92474.94;;;12.56;73.05
61345;BME280;47216;42.656;23.232;2022-11-21T02:43:32;92481.72;;;12.57;73.85
61345;BME280;47216;42.656;23.232;2022-11-21T02:46:01;92475.03;;;12.51;73.62
61345;BME280;47216;42.656;23.232;2022-11-21T02:48:28;92448.22;;;12.59;74.30
61345;BME280;47216;42.656;23.232;2022-11-21T02:50:55;92459.47;;;12.46;74.37
61345;BME280;47216;42.656;23.232;2022-11-21T02:53:22;92450.16;;;12.40;74.45
61345;BME280;47216;42.656;23.232;2022-11-21T02:55:48;92455.88;;;12.56;74.71
61345;BME280;47216;42.656;23.232;2022-11-21T02:58:15;92443.16;;;12.63;72.72
61345;BME280;47216;42.656;23.232;2022-11-21T03:00:43;92442.38;;;12.63;73.41
61345;BME280;47216;42.656;23.232;2022-11-21T03:03:10;92433.47;;;12.64;72.18
61345;BME280;47216;42.656;23.232;2022-11-21T03:05:38;92437.38;;;12.52;73.33
61345;BME280;47216;42.656;23.232;2022-11-21T03:08:05;92435.78;;;12.65;72.31
61345;BME280;47216;42.656;23.232;2022-11-21T03:10:32;92446.75;;;12.67;72.94
61345;BME280;47216;42.656;23.232;2022-11-21T03:12:59;92445.50;;;12.65;72.04
61345;BME280;47216;42.656;23.232;2022-11-21T03:15:30;92430.97;;;12.58;72.77
61345;BME280;47216;42.656;23.232;2022-11-21T03:18:00;92435.44;;;12.58;72.20
61345;BME280;47216;42.656;23.232;2022-11-21T03:20:28;92447.78;;;12.66;72.33
61345;BME280;47216;42.656;23.232;2022-11-21T03:22:55;92429.78;;;12.65;71.23
61345;BME280;47216;42.656;23.232;2022-11-21T03:25:21;92442.38;;;12.63;71.36
61345;BME280;47216;42.656;23.232;2022-11-21T03:27:49;92437.53;;;12.70;70.56
61345;BME280;47216;42.656;23.232;2022-11-21T03:30:17;92452.44;;;12.69;71.59
61345;BME280;47216;42.656;23.232;2022-11-21T03:32:44;92442.75;;;12.70;70.61
61345;BME280;47216;42.656;23.232;2022-11-21T03:35:12;92460.75;;;12.85;68.84
61345;BME280;47216;42.656;23.232;2022-11-21T03:37:39;92434.06;;;12.97;68.85
61345;BME280;47216;42.656;23.232;2022-11-21T03:40:07;92437.81;;;13.04;67.90
61345;BME280;47216;42.656;23.232;2022-11-21T03:42:35;92463.38;;;13.08;69.63
61345;BME280;47216;42.656;23.232;2022-11-21T03:45:02;92435.47;;;13.03;68.54
61345;BME280;47216;42.656;23.232;2022-11-21T03:47:29;92438.97;;;12.98;70.10
61345;BME280;47216;42.656;23.232;2022-11-21T03:49:55;92401.81;;;12.88;69.87
61345;BME280;47216;42.656;23.232;2022-11-21T03:52:24;92399.38;;;12.91;68.54
61345;BME280;47216;42.656;23.232;2022-11-21T03:54:51;92421.38;;;12.90;69.86
61345;BME280;47216;42.656;23.232;2022-11-21T03:57:17;92408.84;;;12.78;68.99
61345;BME280;47216;42.656;23.232;2022-11-21T03:59:44;92417.31;;;12.84;68.23
61345;BME280;47216;42.656;23.232;2022-11-21T04:02:11;92396.66;;;12.96;68.21
61345;BME280;47216;42.656;23.232;2022-11-21T04:04:38;92391.53;;;12.91;68.54
61345;BME280;47216;42.656;23.232;2022-11-21T04:07:05;92396.75;;;12.91;68.94
61345;BME280;47216;42.656;23.232;2022-11-21T04:09:33;92381.78;;;12.83;69.37
61345;BME280;47216;42.656;23.232;2022-11-21T04:12:00;92367.16;;;12.82;69.76
61345;BME280;47216;42.656;23.232;2022-11-21T04:14:26;92360.75;;;12.88;68.67
61345;BME280;47216;42.656;23.232;2022-11-21T04:16:53;92330.88;;;12.89;68.69
61345;BME280;47216;42.656;23.232;2022-11-21T04:19:20;92372.94;;;12.93;68.60
61345;BME280;47216;42.656;23.232;2022-11-21T04:21:47;92377.50;;;12.87;69.60
61345;BME280;47216;42.656;23.232;2022-11-21T04:24:13;92341.72;;;12.96;69.17
61345;BME280;47216;42.656;23.232;2022-11-21T04:26:41;92366.59;;;12.94;69.41
61345;BME280;47216;42.656;23.232;2022-11-21T04:29:08;92356.63;;;12.96;69.32
61345;BME280;47216;42.656;23.232;2022-11-21T04:31:35;92378.69;;;12.81;69.61
61345;BME280;47216;42.656;23.232;2022-11-21T04:34:02;92374.28;;;12.90;68.47
61345;BME280;47216;42.656;23.232;2022-11-21T04:36:29;92379.59;;;12.99;69.76
61345;BME280;47216;42.656;23.232;2022-11-21T04:38:56;92376.78;;;12.95;69.60
61345;BME280;47216;42.656;23.232;2022-11-21T04:41:22;92353.59;;;12.80;70.16
61345;BME280;47216;42.656;23.232;2022-11-21T04:43:50;92381.72;;;12.74;70.31
61345;BME280;47216;42.656;23.232;2022-11-21T04:46:17;92375.59;;;12.79;70.57
61345;BME280;47216;42.656;23.232;2022-11-21T04:48:44;92379.75;;;12.80;68.97
61345;BME280;47216;42.656;23.232;2022-11-21T04:51:11;92375.47;;;12.84;68.67
61345;BME280;47216;42.656;23.232;2022-11-21T04:53:38;92351.34;;;12.87;68.73
61345;BME280;47216;42.656;23.232;2022-11-21T04:56:05;92366.44;;;12.90;68.26
61345;BME280;47216;42.656;23.232;2022-11-21T04:58:32;92370.25;;;12.84;68.53
61345;BME280;47216;42.656;23.232;2022-11-21T05:01:05;92361.16;;;12.81;68.32
61345;BME280;47216;42.656;23.232;2022-11-21T05:03:32;92365.75;;;12.76;68.76
61345;BME280;47216;42.656;23.232;2022-11-21T05:05:59;92392.38;;;12.78;68.92
61345;BME280;47216;42.656;23.232;2022-11-21T05:08:26;92374.53;;;12.80;68.15
61345;BME280;47216;42.656;23.232;2022-11-21T05:10:53;92384.41;;;12.83;68.57
61345;BME280;47216;42.656;23.232;2022-11-21T05:13:37;92392.47;;;12.73;68.60
61345;BME280;47216;42.656;23.232;2022-11-21T05:16:05;92393.66;;;12.89;68.00
61345;BME280;47216;42.656;23.232;2022-11-21T05:18:32;92409.78;;;12.82;68.02
61345;BME280;47216;42.656;23.232;2022-11-21T05:21:00;92416.38;;;12.80;68.74
61345;BME280;47216;42.656;23.232;2022-11-21T05:23:28;92422.16;;;12.91;66.67
61345;BME280;47216;42.656;23.232;2022-11-21T05:25:55;92408.03;;;12.92;67.08
61345;BME280;47216;42.656;23.232;2022-11-21T05:28:22;92431.72;;;12.95;66.44
61345;BME280;47216;42.656;23.232;2022-11-21T05:30:49;92442.69;;;12.97;66.83
61345;BME280;47216;42.656;23.232;2022-11-21T05:33:17;92449.94;;;13.00;66.96
61345;BME280;47216;42.656;23.232;2022-11-21T05:35:44;92443.81;;;13.05;66.37
61345;BME280;47216;42.656;23.232;2022-11-21T05:38:11;92438.41;;;13.01;67.38
61345;BME280;47216;42.656;23.232;2022-11-21T05:40:38;92435.72;;;12.93;67.80
61345;BME280;47216;42.656;23.232;2022-11-21T05:43:05;92460.22;;;12.97;66.78
61345;BME280;47216;42.656;23.232;2022-11-21T05:45:51;92447.91;;;12.97;66.80
61345;BME280;47216;42.656;23.232;2022-11-21T05:48:19;92476.44;;;13.08;66.49
61345;BME280;47216;42.656;23.232;2022-11-21T05:50:47;92473.53;;;13.09;65.88
61345;BME280;47216;42.656;23.232;2022-11-21T05:53:15;92477.91;;;13.14;64.96
61345;BME280;47216;42.656;23.232;2022-11-21T05:55:42;92478.84;;;13.18;66.06
61345;BME280;47216;42.656;23.232;2022-11-21T05:58:09;92509.91;;;13.11;66.51
61345;BME280;47216;42.656;23.232;2022-11-21T06:00:36;92508.94;;;13.07;65.53
61345;BME280;47216;42.656;23.232;2022-11-21T06:03:04;92510.66;;;13.11;66.32
61345;BME280;47216;42.656;23.232;2022-11-21T06:05:49;92475.16;;;13.19;65.85
61345;BME280;47216;42.656;23.232;2022-11-21T06:08:16;92518.44;;;13.02;66.13
61345;BME280;47216;42.656;23.232;2022-11-21T06:10:43;92520.16;;;13.07;66.73
61345;BME280;47216;42.656;23.232;2022-11-21T06:13:09;92531.31;;;13.13;65.88
61345;BME280;47216;42.656;23.232;2022-11-21T06:15:52;92536.31;;;13.23;65.49
61345;BME280;47216;42.656;23.232;2022-11-21T06:18:19;92564.84;;;13.11;65.89
61345;BME280;47216;42.656;23.232;2022-11-21T06:20:46;92555.56;;;13.04;66.52
61345;BME280;47216;42.656;23.232;2022-11-21T06:23:14;92567.66;;;13.14;65.49
61345;BME280;47216;42.656;23.232;2022-11-21T06:25:41;92563.66;;;13.17;65.70
61345;BME280;47216;42.656;23.232;2022-11-21T06:30:36;92589.03;;;12.52;65.06
61345;BME280;47216;42.656;23.232;2022-11-21T06:33:03;92618.72;;;12.43;65.50
61345;BME280;47216;42.656;23.232;2022-11-21T06:35:31;92606.41;;;12.15;65.14
61345;BME280;47216;42.656;23.232;2022-11-21T06:37:58;92597.47;;;11.84;67.11
61345;BME280;47216;42.656;23.232;2022-11-21T06:40:26;92622.84;;;11.64;67.28
61345;BME280;47216;42.656;23.232;2022-11-21T06:42:53;92615.06;;;11.59;67.40
61345;BME280;47216;42.656;23.232;2022-11-21T06:45:20;92615.00;;;11.45;66.72
61345;BME280;47216;42.656;23.232;2022-11-21T06:47:46;92635.84;;;10.88;69.38
61345;BME280;47216;42.656;23.232;2022-11-21T06:50:14;92626.81;;;10.57;71.11
61345;BME280;47216;42.656;23.232;2022-11-21T06:52:41;92644.66;;;10.68;70.46
61345;BME280;47216;42.656;23.232;2022-11-21T06:55:08;92638.13;;;10.47;71.94
61345;BME280;47216;42.656;23.232;2022-11-21T06:57:36;92675.00;;;10.30;71.98
61345;BME280;47216;42.656;23.232;2022-11-21T07:00:04;92689.09;;;10.24;72.61
61345;BME280;47216;42.656;23.232;2022-11-21T07:02:31;92694.66;;;10.12;73.87
61345;BME280;47216;42.656;23.232;2022-11-21T07:04:58;92713.16;;;10.10;74.19
61345;BME280;47216;42.656;23.232;2022-11-21T07:07:25;92718.50;;;9.90;73.72
61345;BME280;47216;42.656;23.232;2022-11-21T07:09:51;92727.59;;;9.48;75.41
61345;BME280;47216;42.656;23.232;2022-11-21T07:12:18;92724.41;;;9.56;74.94
61345;BME280;47216;42.656;23.232;2022-11-21T07:15:05;92726.00;;;9.57;75.87
61345;BME280;47216;42.656;23.232;2022-11-21T07:17:31;92736.38;;;9.62;75.08
61345;BME280;47216;42.656;23.232;2022-11-21T07:19:58;92758.19;;;9.72;74.71
61345;BME280;47216;42.656;23.232;2022-11-21T07:22:25;92747.19;;;9.85;74.72
61345;BME280;47216;42.656;23.232;2022-11-21T07:24:52;92755.56;;;9.77;74.38
61345;BME280;47216;42.656;23.232;2022-11-21T07:27:18;92760.81;;;9.66;75.82
61345;BME280;47216;42.656;23.232;2022-11-21T07:29:45;92749.94;;;9.54;75.83
61345;BME280;47216;42.656;23.232;2022-11-21T07:32:13;92770.00;;;9.49;74.73
61345;BME280;47216;42.656;23.232;2022-11-21T07:34:40;92784.88;;;9.38;75.42
61345;BME280;47216;42.656;23.232;2022-11-21T07:37:07;92806.72;;;9.42;75.38
61345;BME280;47216;42.656;23.232;2022-11-21T07:39:34;92811.41;;;9.40;74.93
61345;BME280;47216;42.656;23.232;2022-11-21T07:42:01;92798.91;;;9.42;75.37
61345;BME280;47216;42.656;23.232;2022-11-21T07:44:27;92811.13;;;9.41;75.26
61345;BME280;47216;42.656;23.232;2022-11-21T07:46:54;92817.16;;;9.32;74.98
61345;BME280;47216;42.656;23.232;2022-11-21T07:49:23;92823.34;;;9.46;74.49
61345;BME280;47216;42.656;23.232;2022-11-21T07:51:49;92831.47;;;9.34;75.28
61345;BME280;47216;42.656;23.232;2022-11-21T07:54:16;92832.75;;;9.32;74.36
61345;BME280;47216;42.656;23.232;2022-11-21T07:56:43;92839.03;;;9.20;74.59
61345;BME280;47216;42.656;23.232;2022-11-21T07:59:10;92839.09;;;8.90;74.37
61345;BME280;47216;42.656;23.232;2022-11-21T08:01:37;92843.75;;;8.41;75.44
61345;BME280;47216;42.656;23.232;2022-11-21T08:04:04;92841.88;;;8.21;76.44
61345;BME280;47216;42.656;23.232;2022-11-21T08:06:32;92842.88;;;8.15;78.37
61345;BME280;47216;42.656;23.232;2022-11-21T08:08:59;92848.63;;;8.23;78.45
61345;BME280;47216;42.656;23.232;2022-11-21T08:11:25;92857.44;;;8.16;78.16
61345;BME280;47216;42.656;23.232;2022-11-21T08:13:52;92868.00;;;7.94;79.26
61345;BME280;47216;42.656;23.232;2022-11-21T08:16:19;92864.94;;;8.03;80.02
61345;BME280;47216;42.656;23.232;2022-11-21T08:18:47;92880.56;;;8.23;78.87
61345;BME280;47216;42.656;23.232;2022-11-21T08:21:15;92876.44;;;8.32;80.26
61345;BME280;47216;42.656;23.232;2022-11-21T08:23:43;92875.16;;;8.45;79.71
61345;BME280;47216;42.656;23.232;2022-11-21T08:26:10;92889.72;;;8.56;81.50
61345;BME280;47216;42.656;23.232;2022-11-21T08:28:37;92892.34;;;8.82;79.09
61345;BME280;47216;42.656;23.232;2022-11-21T08:31:04;92880.13;;;8.77;79.37
61345;BME280;47216;42.656;23.232;2022-11-21T08:33:31;92903.03;;;8.86;79.00
61345;BME280;47216;42.656;23.232;2022-11-21T08:36:02;92903.28;;;8.84;78.75
61345;BME280;47216;42.656;23.232;2022-11-21T08:38:29;92894.72;;;8.99;79.81
61345;BME280;47216;42.656;23.232;2022-11-21T08:40:57;92900.44;;;9.06;77.11
61345;BME280;47216;42.656;23.232;2022-11-21T08:43:42;92911.34;;;8.98;76.27
61345;BME280;47216;42.656;23.232;2022-11-21T08:46:08;92913.41;;;9.11;74.95
61345;BME280;47216;42.656;23.232;2022-11-21T08:48:35;92908.47;;;8.89;75.11
61345;BME280;47216;42.656;23.232;2022-11-21T08:51:02;92919.13;;;8.82;74.86
61345;BME280;47216;42.656;23.232;2022-11-21T08:53:29;92924.84;;;8.69;76.37
61345;BME280;47216;42.656;23.232;2022-11-21T08:55:57;92925.88;;;8.58;74.31
61345;BME280;47216;42.656;23.232;2022-11-21T08:58:24;92926.56;;;8.33;74.38
61345;BME280;47216;42.656;23.232;2022-11-21T09:00:51;92918.50;;;8.34;75.18
61345;BME280;47216;42.656;23.232;2022-11-21T09:03:17;92928.38;;;8.27;75.52
61345;BME280;47216;42.656;23.232;2022-11-21T09:05:44;92922.66;;;8.25;75.08
61345;BME280;47216;42.656;23.232;2022-11-21T09:08:11;92920.75;;;8.10;75.32
61345;BME280;47216;42.656;23.232;2022-11-21T09:10:38;92916.09;;;8.12;77.25
61345;BME280;47216;42.656;23.232;2022-11-21T09:13:06;92924.94;;;8.16;76.99
61345;BME280;47216;42.656;23.232;2022-11-21T09:15:32;92926.78;;;8.26;76.31
61345;BME280;47216;42.656;23.232;2022-11-21T09:18:16;92924.97;;;8.27;75.31
61345;BME280;47216;42.656;23.232;2022-11-21T09:20:43;92937.69;;;8.18;76.05
61345;BME280;47216;42.656;23.232;2022-11-21T09:23:12;92923.66;;;8.14;77.02
61345;BME280;47216;42.656;23.232;2022-11-21T09:25:39;92935.81;;;8.08;76.33
61345;BME280;47216;42.656;23.232;2022-11-21T09:28:10;92924.66;;;8.13;77.40
61345;BME280;47216;42.656;23.232;2022-11-21T09:30:38;92927.53;;;8.16;78.16
61345;BME280;47216;42.656;23.232;2022-11-21T09:33:07;92942.91;;;8.33;77.81
61345;BME280;47216;42.656;23.232;2022-11-21T09:35:35;92936.22;;;8.43;77.78
61345;BME280;47216;42.656;23.232;2022-11-21T09:38:03;92942.47;;;8.47;78.05
61345;BME280;47216;42.656;23.232;2022-11-21T09:40:32;92936.25;;;8.63;77.63
61345;BME280;47216;42.656;23.232;2022-11-21T09:43:24;92923.28;;;8.58;75.22
61345;BME280;47216;42.656;23.232;2022-11-21T09:45:58;92933.56;;;8.37;75.76
61345;BME280;47216;42.656;23.232;2022-11-21T09:48:33;92937.28;;;8.47;76.95
61345;BME280;47216;42.656;23.232;2022-11-21T09:51:04;92938.81;;;8.43;76.05
61345;BME280;47216;42.656;23.232;2022-11-21T09:53:36;92953.88;;;8.40;76.74
61345;BME280;47216;42.656;23.232;2022-11-21T09:56:05;92956.84;;;8.07;77.06
61345;BME280;47216;42.656;23.232;2022-11-21T09:58:38;92939.47;;;8.07;77.10
61345;BME280;47216;42.656;23.232;2022-11-21T10:01:10;92957.88;;;8.11;78.31
61345;BME280;47216;42.656;23.232;2022-11-21T10:03:40;92969.84;;;8.07;78.05
61345;BME280;47216;42.656;23.232;2022-11-21T10:06:16;92952.00;;;7.68;78.20
61345;BME280;47216;42.656;23.232;2022-11-21T10:08:52;92960.22;;;7.60;78.56
61345;BME280;47216;42.656;23.232;2022-11-21T10:11:26;92953.56;;;7.74;76.27
61345;BME280;47216;42.656;23.232;2022-11-21T10:14:08;92950.94;;;7.69;77.40
61345;BME280;47216;42.656;23.232;2022-11-21T10:16:43;92958.72;;;7.26;78.30
61345;BME280;47216;42.656;23.232;2022-11-21T10:19:39;92972.53;;;7.37;78.65
61345;BME280;47216;42.656;23.232;2022-11-21T10:22:24;92969.47;;;7.45;78.85
61345;BME280;47216;42.656;23.232;2022-11-21T10:24:55;92976.88;;;7.64;79.27
61345;BME280;47216;42.656;23.232;2022-11-21T10:27:31;92977.97;;;7.78;78.08
61345;BME280;47216;42.656;23.232;2022-11-21T10:30:04;92981.28;;;7.63;76.97
61345;BME280;47216;42.656;23.232;2022-11-21T10:32:35;92978.06;;;7.51;78.34
61345;BME280;47216;42.656;23.232;2022-11-21T10:35:13;92978.94;;;7.67;78.38
61345;BME280;47216;42.656;23.232;2022-11-21T10:37:44;92987.81;;;7.71;78.88
61345;BME280;47216;42.656;23.232;2022-11-21T10:40:25;92984.13;;;7.67;78.48
61345;BME280;47216;42.656;23.232;2022-11-21T10:42:59;92991.88;;;7.56;77.97
61345;BME280;47216;42.656;23.232;2022-11-21T10:45:48;92991.31;;;7.49;78.42
61345;BME280;47216;42.656;23.232;2022-11-21T10:48:14;92993.94;;;7.60;79.08
61345;BME280;47216;42.656;23.232;2022-11-21T10:50:52;92991.34;;;7.60;78.51
61345;BME280;47216;42.656;23.232;2022-11-21T10:53:24;92992.44;;;7.64;78.23
61345;BME280;47216;42.656;23.232;2022-11-21T10:56:12;92990.22;;;7.45;78.15
61345;BME280;47216;42.656;23.232;2022-11-21T10:58:42;92993.50;;;7.68;77.32
61345;BME280;47216;42.656;23.232;2022-11-21T11:01:26;92998.69;;;7.68;78.46
61345;BME280;47216;42.656;23.232;2022-11-21T11:04:19;93004.94;;;7.72;77.32
61345;BME280;47216;42.656;23.232;2022-11-21T11:06:46;93008.50;;;7.61;77.47
61345;BME280;47216;42.656;23.232;2022-11-21T11:09:25;93011.69;;;7.73;78.09
61345;BME280;47216;42.656;23.232;2022-11-21T11:11:53;93011.94;;;7.71;77.57
61345;BME280;47216;42.656;23.232;2022-11-21T11:14:29;93011.97;;;7.76;77.07
61345;BME280;47216;42.656;23.232;2022-11-21T11:16:58;92999.25;;;7.75;76.51
61345;BME280;47216;42.656;23.232;2022-11-21T11:19:27;92995.81;;;7.69;76.26
61345;BME280;47216;42.656;23.232;2022-11-21T11:21:54;92990.19;;;7.77;75.94
61345;BME280;47216;42.656;23.232;2022-11-21T11:24:24;92997.09;;;7.67;76.77
61345;BME280;47216;42.656;23.232;2022-11-21T11:26:57;92999.00;;;7.76;76.57
61345;BME280;47216;42.656;23.232;2022-11-21T11:29:26;92998.13;;;7.61;76.65
61345;BME280;47216;42.656;23.232;2022-11-21T11:31:56;92987.06;;;7.38;77.82
61345;BME280;47216;42.656;23.232;2022-11-21T11:34:28;92986.31;;;7.43;78.24
61345;BME280;47216;42.656;23.232;2022-11-21T11:37:11;92988.97;;;7.53;77.85
61345;BME280;47216;42.656;23.232;2022-11-21T11:39:39;92990.28;;;7.55;77.62
61345;BME280;47216;42.656;23.232;2022-11-21T11:42:39;92989.16;;;7.41;79.16
61345;BME280;47216;42.656;23.232;2022-11-21T11:48:44;92992.38;;;7.53;78.18
61345;BME280;47216;42.656;23.232;2022-11-21T11:51:20;92996.00;;;7.57;77.43
61345;BME280;47216;42.656;23.232;2022-11-21T11:53:49;92995.25;;;7.62;78.38
61345;BME280;47216;42.656;23.232;2022-11-21T11:56:21;92981.53;;;7.62;78.12
61345;BME280;47216;42.656;23.232;2022-11-21T11:58:54;92990.41;;;7.71;78.38
61345;BME280;47216;42.656;23.232;2022-11-21T12:01:29;92995.34;;;7.72;77.43
61345;BME280;47216;42.656;23.232;2022-11-21T12:04:01;92987.28;;;7.69;77.63
61345;BME280;47216;42.656;23.232;2022-11-21T12:06:35;93000.25;;;7.69;76.99
61345;BME280;47216;42.656;23.232;2022-11-21T12:09:12;92996.56;;;7.60;77.15
61345;BME280;47216;42.656;23.232;2022-11-21T12:11:51;93002.81;;;7.64;77.26
61345;BME280;47216;42.656;23.232;2022-11-21T12:14:52;93005.97;;;7.71;76.63
61345;BME280;47216;42.656;23.232;2022-11-21T12:17:42;93006.00;;;7.76;77.83
61345;BME280;47216;42.656;23.232;2022-11-21T12:20:16;93000.31;;;7.79;76.81
61345;BME280;47216;42.656;23.232;2022-11-21T12:22:48;92998.75;;;7.78;77.37
61345;BME280;47216;42.656;23.232;2022-11-21T12:25:17;93002.38;;;7.77;77.42
61345;BME280;47216;42.656;23.232;2022-11-21T12:27:48;92997.19;;;7.77;77.58
61345;BME280;47216;42.656;23.232;2022-11-21T12:30:31;92998.50;;;7.79;77.57
61345;BME280;47216;42.656;23.232;2022-11-21T12:33:04;92993.00;;;7.71;78.13
61345;BME280;47216;42.656;23.232;2022-11-21T12:35:41;92997.63;;;7.64;76.16
61345;BME280;47216;42.656;23.232;2022-11-21T12:38:27;93012.78;;;7.45;76.34
61345;BME280;47216;42.656;23.232;2022-11-21T12:41:08;93015.06;;;7.36;75.77
61345;BME280;47216;42.656;23.232;2022-11-21T12:44:04;93014.03;;;7.37;76.47
61345;BME280;47216;42.656;23.232;2022-11-21T12:46:44;93019.81;;;7.44;78.42
61345;BME280;47216;42.656;23.232;2022-11-21T12:49:22;93020.28;;;7.41;78.01
61345;BME280;47216;42.656;23.232;2022-11-21T12:52:13;93011.75;;;7.46;78.16
61345;BME280;47216;42.656;23.232;2022-11-21T12:55:11;93008.25;;;7.62;77.97
61345;BME280;47216;42.656;23.232;2022-11-21T12:58:03;93018.47;;;7.79;77.65
61345;BME280;47216;42.656;23.232;2022-11-21T13:00:36;93023.91;;;7.77;76.89
61345;BME280;47216;42.656;23.232;2022-11-21T13:03:27;93026.28;;;7.79;76.21
61345;BME280;47216;42.656;23.232;2022-11-21T13:05:56;93016.91;;;7.78;75.73
61345;BME280;47216;42.656;23.232;2022-11-21T13:08:26;93024.91;;;7.71;76.38
61345;BME280;47216;42.656;23.232;2022-11-21T13:11:00;93035.56;;;7.75;77.02
61345;BME280;47216;42.656;23.232;2022-11-21T13:13:43;93045.44;;;7.78;75.37
61345;BME280;47216;42.656;23.232;2022-11-21T13:16:17;93048.69;;;7.58;73.50
61345;BME280;47216;42.656;23.232;2022-11-21T13:19:02;93048.44;;;7.60;74.78
61345;BME280;47216;42.656;23.232;2022-11-21T13:21:41;93047.84;;;7.47;75.16
61345;BME280;47216;42.656;23.232;2022-11-21T13:24:08;93043.88;;;7.40;72.88